Time;durP1;ratioP1;P1;durP2;ratioP2;P2;SDS_P1;SDS_P2;PMS_P1;PMS_P2;Temp;Humidity;BMP_temperature;BMP_pressure;BME280_temperature;BME280_humidity;BME280_pressure;Samples;Min_cycle;Max_cycle;Signal;HPM_P1;HPM_P2
2021/04/10 00:00:38;;;;;;;0.70;0.60;;;;;;;13.94;45.81;94042.06;5034738;28;20031;-61
2021/04/10 00:03:09;;;;;;;0.90;0.75;;;;;;;13.94;46.02;94041.22;5051763;28;20036;-60
2021/04/10 00:05:34;;;;;;;1.25;0.90;;;;;;;13.94;46.08;94038.59;5038100;28;20029;-61
2021/04/10 00:08:11;;;;;;;0.75;0.60;;;;;;;13.94;45.96;94041.22;5035796;28;20068;-61
2021/04/10 00:10:37;;;;;;;0.90;0.88;;;;;;;13.94;46.09;94036.81;5021547;28;20530;-61
2021/04/10 00:13:02;;;;;;;1.80;0.70;;;;;;;13.94;45.90;94039.44;5054344;28;20033;-60
2021/04/10 00:15:29;;;;;;;1.27;0.85;;;;;;;13.94;46.27;94034.16;5039012;28;20028;-57
2021/04/10 00:18:01;;;;;;;0.70;0.70;;;;;;;13.94;45.87;94035.97;5038250;28;20060;-61
2021/04/10 00:20:35;;;;;;;0.68;0.68;;;;;;;13.94;46.15;94034.16;5020554;28;20029;-60
2021/04/10 00:23:01;;;;;;;0.80;0.80;;;;;;;13.93;45.63;94024.66;5038895;28;20029;-61
2021/04/10 00:25:26;;;;;;;0.70;0.70;;;;;;;13.93;45.75;94029.91;5043358;28;20047;-60
2021/04/10 00:28:02;;;;;;;0.88;0.70;;;;;;;13.94;45.95;94033.34;5038517;28;20051;-60
2021/04/10 00:30:27;;;;;;;0.90;0.90;;;;;;;13.94;46.12;94038.59;5054535;28;20036;-61
2021/04/10 00:32:54;;;;;;;0.63;0.63;;;;;;;13.94;45.80;94035.97;5054896;28;20029;-61
2021/04/10 00:35:25;;;;;;;0.80;0.80;;;;;;;13.94;45.97;94041.22;5042809;28;20025;-60
2021/04/10 00:37:51;;;;;;;1.33;0.82;;;;;;;13.94;45.98;94038.59;5027810;28;20130;-60
2021/04/10 00:40:25;;;;;;;0.80;0.80;;;;;;;13.94;46.23;94042.06;5033684;28;20037;-61
2021/04/10 00:42:51;;;;;;;0.68;0.65;;;;;;;13.94;46.16;94035.97;5019669;28;20025;-60
2021/04/10 00:45:20;;;;;;;0.80;0.80;;;;;;;13.93;45.93;94037.81;5051497;28;20036;-61
2021/04/10 00:47:49;;;;;;;1.00;0.70;;;;;;;13.94;45.83;94036.81;5033454;28;20040;-60
2021/04/10 00:50:15;;;;;;;0.82;0.70;;;;;;;13.93;45.90;94037.00;5051448;28;20048;-61
2021/04/10 00:52:42;;;;;;;1.10;1.00;;;;;;;13.92;45.74;94038.81;5018244;28;20053;-61
2021/04/10 00:55:10;;;;;;;1.10;0.65;;;;;;;13.94;45.71;94033.34;5018320;28;20057;-60
2021/04/10 00:57:42;;;;;;;0.70;0.70;;;;;;;13.94;45.94;94035.97;5019106;28;20063;-61
2021/04/10 01:00:08;;;;;;;1.33;1.10;;;;;;;13.94;46.25;94038.59;5031864;28;20029;-60
2021/04/10 01:02:34;;;;;;;0.77;0.77;;;;;;;13.93;45.90;94032.53;5035241;28;20120;-61
2021/04/10 01:04:59;;;;;;;0.70;0.70;;;;;;;13.93;45.85;94029.91;5010685;28;20036;-60
2021/04/10 01:07:25;;;;;;;1.38;0.88;;;;;;;13.94;45.99;94033.34;5046263;28;20033;-60
2021/04/10 01:09:58;;;;;;;0.88;0.70;;;;;;;13.93;46.18;94035.16;5035425;28;20029;-60
2021/04/10 01:12:28;;;;;;;0.70;0.70;;;;;;;13.93;45.83;94037.00;5069173;28;20025;-61
2021/04/10 01:15:17;;;;;;;0.90;0.88;;;;;;;13.94;45.83;94039.44;5023853;28;20025;-61
2021/04/10 01:17:50;;;;;;;0.60;0.60;;;;;;;13.93;46.02;94029.91;5034953;28;20029;-60
2021/04/10 01:20:35;;;;;;;0.63;0.63;;;;;;;13.94;45.87;94025.44;5020590;28;20033;-61
2021/04/10 01:23:36;;;;;;;0.68;0.68;;;;;;;13.94;45.92;94034.16;5050915;28;20096;-60
2021/04/10 01:26:02;;;;;;;0.60;0.60;;;;;;;13.93;45.93;94029.13;5035543;28;20037;-60
2021/04/10 01:28:55;;;;;;;0.88;0.88;;;;;;;13.93;45.87;94021.22;5048020;28;20176;-60
2021/04/10 01:31:54;;;;;;;0.80;0.80;;;;;;;13.94;45.79;94020.19;5049066;28;20087;-61
2021/04/10 01:35:06;;;;;;;0.90;0.90;;;;;;;13.93;46.31;94024.66;5033855;28;20021;-60
2021/04/10 01:37:31;;;;;;;0.95;0.90;;;;;;;13.93;45.98;94021.22;4991658;28;20096;-60
2021/04/10 01:40:00;;;;;;;0.88;0.68;;;;;;;13.92;45.92;94025.66;4976809;28;20038;-60
2021/04/10 01:42:28;;;;;;;1.10;1.00;;;;;;;13.92;46.00;94015.13;4958797;28;20034;-60
2021/04/10 01:44:57;;;;;;;1.17;0.90;;;;;;;13.93;45.99;94013.31;4977201;28;20030;-60
2021/04/10 01:47:25;;;;;;;0.90;0.80;;;;;;;13.93;45.91;94015.97;4977273;28;20746;-59
2021/04/10 01:49:51;;;;;;;0.70;0.63;;;;;;;13.93;45.93;94015.97;4993102;28;20088;-61
2021/04/10 01:52:22;;;;;;;0.73;0.70;;;;;;;13.93;46.27;94018.59;4974844;28;20054;-60
2021/04/10 01:54:48;;;;;;;1.05;0.98;;;;;;;13.93;45.75;94018.59;4977673;28;20425;-60
2021/04/10 01:57:15;;;;;;;0.70;0.70;;;;;;;13.93;45.91;94014.13;4956189;28;20023;-61
2021/04/10 01:59:42;;;;;;;0.80;0.80;;;;;;;13.93;45.90;94003.59;4957538;28;20035;-60
2021/04/10 02:02:09;;;;;;;0.73;0.73;;;;;;;13.94;45.84;94014.94;4958639;28;20122;-60
2021/04/10 02:04:39;;;;;;;0.70;0.70;;;;;;;13.92;45.85;94012.50;4976715;28;20022;-60
2021/04/10 02:07:05;;;;;;;1.23;1.05;;;;;;;13.92;46.24;94017.75;4971079;28;20069;-60
2021/04/10 02:09:42;;;;;;;1.30;0.80;;;;;;;13.93;46.05;94023.84;4976879;28;20030;-60
2021/04/10 02:12:10;;;;;;;0.70;0.70;;;;;;;13.93;46.07;94024.66;4985948;28;20479;-60
2021/04/10 02:14:37;;;;;;;0.82;0.70;;;;;;;13.93;46.21;94026.47;5000686;28;20046;-60
2021/04/10 02:17:03;;;;;;;0.80;0.80;;;;;;;13.93;46.03;94029.91;5013518;28;20057;-60
2021/04/10 02:19:55;;;;;;;0.70;0.70;;;;;;;13.94;46.15;94025.44;5036762;28;20031;-60
2021/04/10 02:22:32;;;;;;;0.70;0.70;;;;;;;13.93;46.21;94018.59;5018175;28;20033;-61
2021/04/10 02:25:09;;;;;;;0.77;0.75;;;;;;;13.93;46.18;94029.91;5030990;28;20029;-60
2021/04/10 02:27:35;;;;;;;0.88;0.88;;;;;;;13.92;46.21;94022.22;5045029;28;20090;-60
2021/04/10 02:30:00;;;;;;;0.90;0.90;;;;;;;13.93;46.13;94013.31;5024630;28;20397;-59
2021/04/10 02:32:30;;;;;;;0.77;0.77;;;;;;;13.92;45.92;94017.75;5028739;28;20053;-60
2021/04/10 02:35:30;;;;;;;0.70;0.70;;;;;;;13.92;46.19;94019.59;5030396;28;20029;-60
2021/04/10 02:37:56;;;;;;;0.80;0.80;;;;;;;13.92;46.11;94016.97;5046856;28;20098;-59
2021/04/10 02:40:34;;;;;;;0.85;0.85;;;;;;;13.92;46.20;94020.38;5007573;28;20036;-60
2021/04/10 02:43:00;;;;;;;0.70;0.70;;;;;;;13.93;45.89;94016.75;5017550;28;20028;-60
2021/04/10 02:45:27;;;;;;;0.80;0.80;;;;;;;13.93;45.77;94022.03;5009071;28;20123;-61
2021/04/10 02:48:10;;;;;;;1.13;0.80;;;;;;;13.92;46.28;94017.75;4999183;28;20025;-60
2021/04/10 02:50:55;;;;;;;0.98;0.98;;;;;;;13.93;45.80;94013.31;4993644;28;20090;-60
2021/04/10 02:53:22;;;;;;;0.70;0.70;;;;;;;13.93;45.87;94010.69;5017706;28;20045;-61
2021/04/10 02:55:57;;;;;;;0.70;0.70;;;;;;;13.92;46.21;94012.50;5017374;28;20056;-60
2021/04/10 02:58:28;;;;;;;0.77;0.63;;;;;;;13.91;46.07;94016.16;5024397;28;20037;-61
2021/04/10 03:00:54;;;;;;;0.90;0.77;;;;;;;13.93;46.03;94010.69;5027741;28;20033;-60
2021/04/10 03:03:23;;;;;;;1.55;0.93;;;;;;;13.92;45.93;94009.88;5024805;28;20025;-60
2021/04/10 03:05:49;;;;;;;0.77;0.77;;;;;;;13.92;45.91;94012.50;5033686;28;20025;-60
2021/04/10 03:08:22;;;;;;;0.70;0.70;;;;;;;13.92;45.85;94011.69;5048788;28;20040;-61
2021/04/10 03:11:07;;;;;;;0.68;0.68;;;;;;;13.93;45.88;94011.50;5052009;28;20384;-60
2021/04/10 03:13:33;;;;;;;0.80;0.80;;;;;;;13.93;46.09;94010.69;5065076;28;20036;-59
2021/04/10 03:16:05;;;;;;;0.80;0.80;;;;;;;13.93;45.90;94013.31;5018257;28;20488;-59
2021/04/10 03:18:44;;;;;;;0.70;0.60;;;;;;;13.92;46.09;94009.88;5027580;28;20021;-61
2021/04/10 03:21:12;;;;;;;0.77;0.77;;;;;;;13.92;45.82;94009.88;5042611;28;20025;-60
2021/04/10 03:23:40;;;;;;;0.98;0.77;;;;;;;13.92;46.19;94012.50;5035530;28;20070;-60
2021/04/10 03:26:06;;;;;;;0.70;0.70;;;;;;;13.93;45.76;94014.13;5051155;28;20083;-60
2021/04/10 03:28:32;;;;;;;0.80;0.80;;;;;;;13.92;46.12;94017.75;5019243;28;20093;-61
2021/04/10 03:31:02;;;;;;;0.75;0.75;;;;;;;13.92;46.11;94012.50;5031454;28;20025;-60
2021/04/10 03:33:31;;;;;;;;;;;;;;;13.93;45.82;94021.22;5021217;28;20053;-60
2021/04/10 03:36:06;;;;;;;;;;;;;;;13.93;46.27;94019.38;5045589;28;19955;-60
2021/04/10 03:38:40;;;;;;;0.65;0.65;;;;;;;13.93;46.33;94018.59;5025606;28;19917;-60
2021/04/10 03:41:08;;;;;;;0.60;0.60;;;;;;;13.93;46.13;94018.59;5032025;28;20092;-60
2021/04/10 03:43:34;;;;;;;0.70;0.70;;;;;;;13.92;46.33;94015.13;5036494;28;20018;-59
2021/04/10 03:46:01;;;;;;;0.73;0.70;;;;;;;13.92;46.06;94017.75;5069884;28;20032;-60
2021/04/10 03:48:29;;;;;;;1.42;0.63;;;;;;;13.93;46.34;94013.31;5039548;28;20461;-60
2021/04/10 03:50:57;;;;;;;0.70;0.70;;;;;;;13.93;46.40;94018.59;5024835;28;20028;-60
2021/04/10 03:53:23;;;;;;;0.82;0.73;;;;;;;13.92;46.05;94015.13;5012064;28;20035;-60
2021/04/10 03:55:49;;;;;;;0.65;0.65;;;;;;;13.93;46.38;94015.97;5023223;28;20536;-59
2021/04/10 03:58:27;;;;;;;0.80;0.80;;;;;;;13.93;45.95;94008.06;5014119;28;20028;-59
2021/04/10 04:00:53;;;;;;;0.57;0.57;;;;;;;13.92;46.18;94006.44;5021686;28;20025;-60
2021/04/10 04:03:38;;;;;;;0.80;0.80;;;;;;;13.92;46.09;94012.50;5070460;28;20013;-59
2021/04/10 04:06:03;;;;;;;0.80;0.77;;;;;;;13.91;45.92;94010.91;5018951;28;20063;-60
2021/04/10 04:08:31;;;;;;;1.02;0.80;;;;;;;13.93;46.14;94013.31;5029421;28;20024;-61
2021/04/10 04:10:56;;;;;;;0.63;0.63;;;;;;;13.92;45.88;94017.75;5039435;28;20024;-60
2021/04/10 04:13:22;;;;;;;1.08;0.90;;;;;;;13.92;45.95;94012.50;5038046;28;20036;-59
2021/04/10 04:15:48;;;;;;;0.68;0.68;;;;;;;13.92;45.93;94012.50;5038519;28;20496;-60
2021/04/10 04:18:15;;;;;;;0.75;0.75;;;;;;;13.91;46.06;94010.91;5034149;28;20109;-60
2021/04/10 04:20:49;;;;;;;0.55;0.55;;;;;;;13.93;45.80;94014.13;5038966;28;20024;-60
2021/04/10 04:23:16;;;;;;;0.60;0.60;;;;;;;13.92;46.29;94011.69;5034025;28;20574;-60
2021/04/10 04:25:46;;;;;;;0.77;0.63;;;;;;;13.92;45.74;94009.88;5052695;28;20036;-60
2021/04/10 04:28:17;;;;;;;0.93;0.75;;;;;;;13.92;46.11;94012.50;5034324;28;20029;-60
2021/04/10 04:30:43;;;;;;;0.73;0.70;;;;;;;13.92;45.98;94020.38;5039050;28;20145;-60
2021/04/10 04:33:13;;;;;;;0.70;0.70;;;;;;;13.92;46.06;94016.97;5034335;28;20108;-60
2021/04/10 04:35:40;;;;;;;0.70;0.68;;;;;;;13.92;45.97;94017.75;5067374;28;20021;-60
2021/04/10 04:38:16;;;;;;;0.70;0.70;;;;;;;13.92;46.02;94017.75;5034592;28;20037;-60
2021/04/10 04:40:42;;;;;;;0.80;0.80;;;;;;;13.92;45.93;94020.38;5030446;28;20033;-60
2021/04/10 04:43:13;;;;;;;1.02;0.80;;;;;;;13.92;46.17;94027.47;5032000;28;20020;-60
2021/04/10 04:45:39;;;;;;;0.80;0.80;;;;;;;13.92;46.20;94027.47;5038141;28;20120;-60
2021/04/10 04:48:21;;;;;;;0.70;0.70;;;;;;;13.92;46.11;94033.53;5020437;28;20047;-61
2021/04/10 04:50:51;;;;;;;0.75;0.75;;;;;;;13.91;45.93;94029.31;5038052;28;20032;-60
2021/04/10 04:53:17;;;;;;;0.80;0.80;;;;;;;13.93;45.98;94029.13;5038011;28;20025;-60
2021/04/10 04:55:45;;;;;;;0.50;0.50;;;;;;;13.93;46.11;94037.81;5055014;28;20473;-60
2021/04/10 04:58:12;;;;;;;0.82;0.80;;;;;;;13.92;45.98;94033.53;5051068;28;20028;-60
2021/04/10 05:00:38;;;;;;;0.73;0.73;;;;;;;13.93;46.13;94042.25;5030394;28;20021;-60
2021/04/10 05:03:19;;;;;;;0.65;0.65;;;;;;;13.92;45.93;94038.81;5052198;28;20056;-60
2021/04/10 05:05:45;;;;;;;0.77;0.70;;;;;;;13.91;45.84;94037.19;5034081;28;20029;-60
2021/04/10 05:08:10;;;;;;;1.02;0.80;;;;;;;13.92;46.17;94038.81;5054848;28;20031;-60
2021/04/10 05:10:36;;;;;;;0.77;0.70;;;;;;;13.92;46.19;94044.06;5021451;28;20051;-57
2021/04/10 05:13:01;;;;;;;1.02;0.70;;;;;;;13.92;45.92;94045.88;5036963;28;20033;-60
2021/04/10 05:15:57;;;;;;;0.70;0.70;;;;;;;13.92;46.38;94049.31;5034062;28;20377;-60
2021/04/10 05:18:24;;;;;;;0.70;0.70;;;;;;;13.93;46.11;94053.59;5020146;28;20033;-60
2021/04/10 05:20:52;;;;;;;1.10;0.88;;;;;;;13.93;46.18;94052.78;5033049;28;20124;-60
2021/04/10 05:23:27;;;;;;;0.70;0.70;;;;;;;13.92;46.18;94054.59;5036106;28;20072;-58
2021/04/10 05:25:53;;;;;;;0.70;0.70;;;;;;;13.93;46.00;94056.22;5040430;28;20120;-59
2021/04/10 05:28:27;;;;;;;0.80;0.80;;;;;;;13.92;46.26;94049.31;5017731;28;20384;-60
2021/04/10 05:30:54;;;;;;;0.63;0.63;;;;;;;13.92;46.25;94048.53;5013009;28;20504;-61
2021/04/10 05:33:20;;;;;;;1.00;0.98;;;;;;;13.93;46.37;94055.41;5032516;28;20033;-61
2021/04/10 05:35:45;;;;;;;0.60;0.60;;;;;;;13.93;46.34;94055.41;5025925;28;20135;-60
2021/04/10 05:38:19;;;;;;;0.75;0.75;;;;;;;13.93;46.26;94060.69;5024570;28;20176;-59
2021/04/10 05:40:44;;;;;;;0.70;0.70;;;;;;;13.93;46.05;94061.47;5017029;28;20088;-60
2021/04/10 05:43:11;;;;;;;0.80;0.80;;;;;;;13.93;45.90;94063.31;5016915;28;20041;-60
2021/04/10 05:45:36;;;;;;;0.70;0.70;;;;;;;13.92;46.28;94067.72;5012371;28;20075;-60
2021/04/10 05:48:02;;;;;;;0.68;0.68;;;;;;;13.91;46.19;94068.75;5017316;28;20041;-57
2021/04/10 05:50:27;;;;;;;0.90;0.90;;;;;;;13.92;46.28;94066.94;4999203;28;20140;-60
2021/04/10 05:52:55;;;;;;;0.90;0.90;;;;;;;13.92;45.82;94067.72;5010230;28;20161;-59
2021/04/10 05:55:38;;;;;;;0.65;0.65;;;;;;;13.91;46.34;94060.88;5014833;28;20038;-60
2021/04/10 05:58:04;;;;;;;0.77;0.77;;;;;;;13.91;46.28;94066.13;5015036;28;20041;-57
2021/04/10 06:00:34;;;;;;;0.60;0.60;;;;;;;13.92;46.33;94073.00;5041141;28;20052;-60
2021/04/10 06:03:00;;;;;;;0.80;0.80;;;;;;;13.92;45.93;94069.56;5032714;28;20089;-56
2021/04/10 06:05:26;;;;;;;0.63;0.63;;;;;;;13.92;45.96;94066.94;5036023;28;20028;-60
2021/04/10 06:07:51;;;;;;;0.77;0.77;;;;;;;13.92;45.80;94073.00;5015896;28;20021;-60
2021/04/10 06:10:18;;;;;;;0.75;0.70;;;;;;;13.92;46.41;94073.00;5020462;28;20029;-60
2021/04/10 06:12:44;;;;;;;0.75;0.75;;;;;;;13.92;46.43;94070.38;5035986;28;20025;-60
2021/04/10 06:15:10;;;;;;;0.77;0.68;;;;;;;13.92;46.02;94075.63;5027148;28;20495;-60
2021/04/10 06:17:35;;;;;;;0.70;0.60;;;;;;;13.91;46.01;94074.03;5030341;28;20100;-61
2021/04/10 06:20:03;;;;;;;0.50;0.50;;;;;;;13.92;46.34;94070.38;5027269;28;20128;-54
2021/04/10 06:22:28;;;;;;;0.80;0.80;;;;;;;13.93;46.28;94079.88;5016172;28;20025;-60
2021/04/10 06:24:57;;;;;;;0.85;0.77;;;;;;;13.93;46.16;94081.72;5016335;28;20055;-60
2021/04/10 06:27:31;;;;;;;0.80;0.80;;;;;;;13.92;46.11;94082.72;5027588;28;20037;-60
2021/04/10 06:29:57;;;;;;;1.02;0.80;;;;;;;13.92;46.11;94080.09;5026299;28;20067;-60
2021/04/10 06:32:23;;;;;;;0.90;0.90;;;;;;;13.92;46.14;94075.63;5028221;28;20056;-60
2021/04/10 06:34:59;;;;;;;0.70;0.70;;;;;;;13.92;46.42;94080.88;5018137;28;20087;-60
2021/04/10 06:37:30;;;;;;;0.65;0.60;;;;;;;13.93;46.25;94079.09;5035198;28;20076;-61
2021/04/10 06:39:57;;;;;;;0.93;0.93;;;;;;;14.06;46.36;94076.53;5034133;28;20040;-60
2021/04/10 06:42:29;;;;;;;2.20;0.93;;;;;;;14.20;46.14;94082.66;5042171;28;20031;-67
2021/04/10 06:44:56;;;;;;;1.65;1.08;;;;;;;14.34;45.81;94088.78;5030223;28;20100;-62
2021/04/10 06:47:22;;;;;;;1.70;1.10;;;;;;;14.47;46.14;94080.94;5045066;28;20113;-64
2021/04/10 06:49:53;;;;;;;2.28;1.00;;;;;;;14.31;46.85;94086.56;5027821;28;20113;-63
2021/04/10 06:52:20;;;;;;;3.75;1.48;;;;;;;14.24;46.62;94078.63;5038559;28;20033;-63
2021/04/10 06:54:48;;;;;;;2.33;1.10;;;;;;;14.20;47.09;94087.91;5036835;28;20029;-63
2021/04/10 06:57:14;;;;;;;1.43;1.20;;;;;;;14.16;46.68;94087.50;5014541;28;20472;-63
2021/04/10 06:59:43;;;;;;;3.42;1.30;;;;;;;13.99;46.06;94097.53;5017526;28;20043;-63
2021/04/10 07:02:11;;;;;;;3.13;1.65;;;;;;;13.82;46.41;94101.47;5029412;28;20264;-63
2021/04/10 07:04:40;;;;;;;4.88;2.05;;;;;;;13.93;43.73;94095.66;5027538;28;20108;-63
2021/04/10 07:07:05;;;;;;;3.97;1.40;;;;;;;14.02;45.29;94097.16;5035155;28;20127;-63
2021/04/10 07:09:33;;;;;;;6.18;1.80;;;;;;;14.07;44.69;94101.00;5067804;28;20400;-63
2021/04/10 07:11:58;;;;;;;5.13;1.58;;;;;;;14.09;44.86;94097.19;5030197;28;20033;-63
2021/04/10 07:14:25;;;;;;;2.10;1.55;;;;;;;14.10;45.12;94104.06;5012412;28;20033;-63
2021/04/10 07:16:57;;;;;;;2.28;1.45;;;;;;;14.14;45.40;94099.22;5029089;28;20025;-63
2021/04/10 07:19:28;;;;;;;3.67;1.60;;;;;;;14.21;44.99;94100.09;5016820;28;20045;-62
2021/04/10 07:22:12;;;;;;;4.90;1.60;;;;;;;14.17;45.16;94104.06;5013929;28;20025;-62
2021/04/10 07:24:42;;;;;;;4.78;1.50;;;;;;;14.14;45.14;94100.03;5042376;28;20028;-63
2021/04/10 07:27:14;;;;;;;;;;;;;;;14.13;45.98;94097.59;5026675;28;20029;-63
2021/04/10 07:29:44;;;;;;;8.00;1.80;;;;;;;14.08;46.20;94100.00;5040164;28;19962;-62
2021/04/10 07:32:40;;;;;;;2.65;1.40;;;;;;;14.05;45.85;94101.22;5018570;28;20021;-63
2021/04/10 07:35:06;;;;;;;4.05;1.50;;;;;;;14.04;45.75;94093.50;5032111;28;20057;-62
2021/04/10 07:37:38;;;;;;;4.15;1.80;;;;;;;14.00;46.18;94093.88;5045386;28;20022;-62
2021/04/10 07:40:24;;;;;;;5.10;1.58;;;;;;;14.01;46.18;94094.72;5031862;28;20069;-63
2021/04/10 07:43:00;;;;;;;1.77;1.48;;;;;;;13.99;46.13;94097.53;5037889;28;20025;-63
2021/04/10 07:45:32;;;;;;;2.28;1.50;;;;;;;13.98;45.95;94095.91;5033737;28;20017;-62
2021/04/10 07:48:03;;;;;;;3.13;1.50;;;;;;;13.98;45.98;94095.91;5034704;28;20113;-63
2021/04/10 07:50:30;;;;;;;2.78;1.20;;;;;;;14.08;46.08;94085.03;5029548;28;20028;-60
2021/04/10 07:52:57;;;;;;;2.92;1.38;;;;;;;14.22;45.56;94088.53;5033195;28;20060;-60
2021/04/10 07:55:34;;;;;;;2.17;1.60;;;;;;;14.26;45.97;94084.50;5022973;28;20029;-60
2021/04/10 07:58:40;;;;;;;3.55;1.60;;;;;;;14.28;45.93;94081.66;5031192;28;20064;-60
2021/04/10 08:01:09;;;;;;;2.95;1.38;;;;;;;14.42;45.79;94070.19;5024944;28;20085;-60
2021/04/10 08:03:47;;;;;;;2.70;1.60;;;;;;;14.46;45.77;94075.88;5030337;28;20020;-60
2021/04/10 08:06:19;;;;;;;3.13;1.83;;;;;;;14.50;45.77;94069.22;5047360;28;20107;-61
2021/04/10 08:08:47;;;;;;;2.58;1.20;;;;;;;14.50;46.47;94067.38;5034530;28;20052;-57
2021/04/10 08:11:17;;;;;;;1.65;1.20;;;;;;;14.44;46.40;94062.09;5017644;28;20102;-57
2021/04/10 08:13:59;;;;;;;1.77;1.23;;;;;;;14.42;46.38;94064.13;5039893;28;20021;-58
2021/04/10 08:16:25;;;;;;;3.67;1.50;;;;;;;14.30;46.61;94061.25;5033841;28;20033;-58
2021/04/10 08:18:55;;;;;;;4.55;1.70;;;;;;;14.24;46.71;94068.09;5043392;28;20108;-58
2021/04/10 08:21:31;;;;;;;4.35;1.52;;;;;;;14.19;46.78;94063.41;5016267;28;20030;-57
2021/04/10 08:23:58;;;;;;;2.78;1.30;;;;;;;14.17;46.33;94060.19;5038655;28;20021;-57
2021/04/10 08:26:24;;;;;;;4.65;1.63;;;;;;;14.15;46.42;94056.91;5019252;28;20086;-58
2021/04/10 08:28:50;;;;;;;1.63;1.45;;;;;;;14.15;46.45;94056.91;5041726;28;20041;-57
2021/04/10 08:31:15;;;;;;;2.00;1.35;;;;;;;14.15;46.20;94053.47;5016803;28;20028;-58
2021/04/10 08:33:48;;;;;;;1.40;1.08;;;;;;;14.13;46.22;94066.84;5016773;28;20033;-58
2021/04/10 08:36:15;;;;;;;3.03;1.23;;;;;;;14.13;46.03;94066.00;5035662;28;20116;-58
2021/04/10 08:38:51;;;;;;;2.30;1.30;;;;;;;14.15;46.15;94067.44;5035405;28;20024;-54
2021/04/10 08:41:19;;;;;;;2.28;1.40;;;;;;;14.15;45.69;94056.91;5043926;28;20121;-50
2021/04/10 08:43:48;;;;;;;4.55;1.40;;;;;;;14.23;45.75;94058.56;5033768;28;20022;-57
2021/04/10 08:46:26;;;;;;;3.78;1.50;;;;;;;14.13;45.63;94055.47;5048541;28;20047;-57
2021/04/10 08:48:53;;;;;;;3.67;1.35;;;;;;;14.08;45.78;94057.91;5012151;28;20630;-57
2021/04/10 08:51:18;;;;;;;3.17;1.38;;;;;;;14.05;45.77;94061.75;5044644;28;20124;-55
2021/04/10 08:53:48;;;;;;;1.92;1.55;;;;;;;14.04;45.74;94056.69;5044737;28;20111;-57
2021/04/10 08:56:18;;;;;;;2.78;1.30;;;;;;;14.04;45.95;94056.69;5031698;28;20036;-57
2021/04/10 08:58:44;;;;;;;3.70;1.30;;;;;;;14.02;45.77;94051.63;5039842;28;20032;-57
2021/04/10 09:01:41;;;;;;;2.38;1.20;;;;;;;14.00;46.21;94043.09;5026856;28;20384;-56
2021/04/10 09:04:07;;;;;;;4.03;1.45;;;;;;;14.00;46.15;94045.72;4993497;28;20034;-55
2021/04/10 09:06:33;;;;;;;2.20;1.30;;;;;;;13.98;46.37;94042.47;4994058;28;20030;-56
2021/04/10 09:09:26;;;;;;;2.83;1.35;;;;;;;13.97;46.18;94041.66;5007788;28;20444;-57
2021/04/10 09:12:17;;;;;;;2.35;1.40;;;;;;;13.97;46.07;94040.88;5000368;28;20446;-56
2021/04/10 09:14:44;;;;;;;5.35;1.35;;;;;;;13.97;46.33;94040.88;5008283;28;20476;-56
2021/04/10 09:17:11;;;;;;;2.08;1.48;;;;;;;13.97;46.32;94038.22;4979197;28;20187;-55
2021/04/10 09:19:37;;;;;;;2.42;1.35;;;;;;;13.97;46.23;94043.50;4992428;28;20549;-57
2021/04/10 09:22:02;;;;;;;1.23;1.00;;;;;;;13.96;46.32;94033.97;4995766;28;20045;-53
2021/04/10 09:24:37;;;;;;;1.65;1.30;;;;;;;13.96;45.83;94032.16;4960648;28;20084;-59
2021/04/10 09:27:26;;;;;;;4.85;1.42;;;;;;;14.08;44.66;94024.50;5009314;28;20038;-60
2021/04/10 09:29:55;;;;;;;11.88;3.35;;;;;;;14.13;43.82;94024.75;4975871;28;20077;-56
2021/04/10 09:32:41;;;;;;;7.30;2.60;;;;;;;14.42;43.94;94033.34;5007725;28;20064;-53
2021/04/10 09:35:17;;;;;;;7.78;2.97;;;;;;;14.52;44.58;94032.94;4998978;28;20041;-55
2021/04/10 09:37:44;;;;;;;9.15;3.15;;;;;;;14.46;44.52;94037.19;5010876;28;20176;-55
2021/04/10 09:40:49;;;;;;;8.90;2.80;;;;;;;14.23;44.90;94037.53;5023935;28;20041;-55
2021/04/10 09:44:05;;;;;;;10.82;2.70;;;;;;;14.13;45.24;94026.53;4972428;28;20042;-53
2021/04/10 09:46:31;;;;;;;12.43;2.90;;;;;;;14.09;45.32;94027.94;4912866;29;20027;-55
2021/04/10 09:49:06;;;;;;;5.70;2.70;;;;;;;14.05;45.55;94027.53;4917770;29;20616;-54
2021/04/10 09:51:39;;;;;;;6.85;2.70;;;;;;;14.04;45.47;94030.38;4935357;29;20399;-55
2021/04/10 09:54:04;;;;;;;4.40;2.20;;;;;;;14.02;45.28;94022.69;4927578;29;20067;-55
2021/04/10 09:56:38;;;;;;;6.15;2.20;;;;;;;14.00;45.88;94024.69;4918325;29;20051;-55
2021/04/10 09:59:04;;;;;;;5.43;2.30;;;;;;;13.99;46.13;94021.25;4938580;29;20100;-54
2021/04/10 10:01:31;;;;;;;4.25;1.90;;;;;;;13.98;45.13;94022.25;4934857;29;20043;-55
2021/04/10 10:03:58;;;;;;;4.72;2.10;;;;;;;13.97;45.86;94025.88;4937805;29;20416;-55
2021/04/10 10:06:24;;;;;;;5.15;2.30;;;;;;;13.97;45.94;94020.63;4903282;29;20027;-55
2021/04/10 10:08:49;;;;;;;4.32;2.22;;;;;;;13.97;45.61;94019.81;4935338;29;20051;-54
2021/04/10 10:11:15;;;;;;;4.30;2.13;;;;;;;13.96;45.76;94018.19;4932792;29;20086;-55
2021/04/10 10:13:42;;;;;;;5.25;2.20;;;;;;;13.95;45.67;94021.81;4958718;28;20037;-55
2021/04/10 10:16:36;;;;;;;5.25;2.20;;;;;;;13.94;45.88;94013.13;4999664;28;20106;-55
2021/04/10 10:19:02;;;;;;;3.75;2.10;;;;;;;13.95;46.01;94011.31;5021304;28;20041;-54
2021/04/10 10:21:30;;;;;;;6.30;2.58;;;;;;;13.95;45.53;94006.88;5034734;28;20029;-56
2021/04/10 10:24:00;;;;;;;6.97;2.20;;;;;;;13.95;45.67;94014.75;5018891;28;20047;-56
2021/04/10 10:26:36;;;;;;;5.53;2.53;;;;;;;13.94;45.92;94001.78;5013536;28;20130;-56
2021/04/10 10:29:14;;;;;;;3.78;2.00;;;;;;;13.94;45.87;93999.16;5031751;28;20175;-54
2021/04/10 10:31:42;;;;;;;3.87;1.73;;;;;;;13.94;45.84;93999.97;5028689;28;20053;-55
2021/04/10 10:34:10;;;;;;;5.57;2.23;;;;;;;13.94;45.92;94002.59;5043402;28;20343;-54
2021/04/10 10:36:36;;;;;;;2.90;1.90;;;;;;;13.93;45.90;93998.34;5013025;28;20021;-55
2021/04/10 10:39:03;;;;;;;3.78;1.80;;;;;;;13.94;46.09;94002.59;5013480;28;20071;-53
2021/04/10 10:41:30;;;;;;;5.30;2.20;;;;;;;13.93;45.59;94003.59;5029139;28;20029;-55
2021/04/10 10:44:28;;;;;;;4.90;2.08;;;;;;;13.93;45.88;93989.66;5029037;28;20017;-54
2021/04/10 10:47:00;;;;;;;4.10;2.20;;;;;;;13.93;45.60;93987.81;5030887;28;20036;-55
2021/04/10 10:49:30;;;;;;;4.75;2.25;;;;;;;13.93;45.68;93987.03;5032494;28;20033;-55
2021/04/10 10:52:00;;;;;;;3.80;1.92;;;;;;;13.96;44.66;93982.16;4998147;28;20060;-55
2021/04/10 10:54:38;;;;;;;4.63;1.73;;;;;;;13.95;44.86;93980.56;4993881;28;20145;-55
2021/04/10 10:57:15;;;;;;;4.70;2.00;;;;;;;13.94;45.41;93973.69;5030478;28;20037;-53
2021/04/10 10:59:41;;;;;;;2.95;1.70;;;;;;;13.94;45.18;93973.69;4996149;28;20196;-55
2021/04/10 11:02:20;;;;;;;3.95;1.90;;;;;;;13.95;45.25;93966.59;5012317;28;20067;-55
2021/04/10 11:04:46;;;;;;;4.95;1.90;;;;;;;13.94;45.31;93957.91;5010785;28;20440;-54
2021/04/10 11:07:12;;;;;;;3.97;1.85;;;;;;;13.94;45.02;93955.25;5002242;28;20032;-54
2021/04/10 11:09:38;;;;;;;2.45;1.52;;;;;;;13.94;45.45;93950.00;5015769;28;20037;-52
2021/04/10 11:12:05;;;;;;;3.35;1.80;;;;;;;13.93;45.21;93940.47;5015982;28;20024;-55
2021/04/10 11:14:44;;;;;;;3.72;1.80;;;;;;;13.94;45.48;93936.03;5016792;28;20029;-54
2021/04/10 11:17:32;;;;;;;2.53;1.83;;;;;;;13.95;45.22;93940.28;5014898;28;20124;-51
2021/04/10 11:20:02;;;;;;;3.35;2.00;;;;;;;13.93;45.26;93924.69;5012944;28;20028;-55
2021/04/10 11:22:28;;;;;;;3.35;1.77;;;;;;;13.94;45.46;93931.59;5018355;28;20037;-55
2021/04/10 11:25:04;;;;;;;4.40;1.80;;;;;;;13.95;45.43;93927.13;5009270;28;20545;-55
2021/04/10 11:27:34;;;;;;;3.78;1.95;;;;;;;13.96;45.52;93920.88;5026725;28;20451;-52
2021/04/10 11:30:03;;;;;;;3.45;1.60;;;;;;;13.95;45.23;93922.69;5044395;28;20025;-54
2021/04/10 11:32:40;;;;;;;3.33;1.92;;;;;;;13.95;45.38;93912.19;5045187;28;20025;-55
2021/04/10 11:35:20;;;;;;;3.35;1.90;;;;;;;13.95;45.51;93906.91;5031224;28;20044;-55
2021/04/10 11:38:10;;;;;;;2.40;1.70;;;;;;;13.97;45.49;93904.88;5004656;28;20025;-55
2021/04/10 11:40:40;;;;;;;2.83;1.63;;;;;;;14.00;45.51;93901.84;5026096;28;20048;-55
2021/04/10 11:43:07;;;;;;;4.20;1.67;;;;;;;14.08;45.11;93902.69;5016666;28;20096;-53
2021/04/10 11:46:02;;;;;;;3.28;1.80;;;;;;;14.05;45.66;93892.53;4986836;28;20465;-54
2021/04/10 11:48:37;;;;;;;3.20;1.67;;;;;;;13.98;45.51;93892.53;4948436;28;20043;-54
2021/04/10 11:51:13;;;;;;;3.58;1.88;;;;;;;13.94;45.82;93883.41;4969005;28;20034;-55
2021/04/10 11:53:38;;;;;;;1.63;1.50;;;;;;;13.93;46.31;93887.88;4939270;28;20122;-54